sensor_id;sensor_type;location;lat;lon;timestamp;pressure;altitude;pressure_sealevel;temperature;humidity
56420;BME280;42323;52.170;7.538;2023-05-08T00:01:16;101692.41;;;13.74;nan
56420;BME280;42323;52.170;7.538;2023-05-08T00:03:43;101678.59;;;13.64;nan
56420;BME280;42323;52.170;7.538;2023-05-08T00:06:09;101681.22;;;13.64;nan
56420;BME280;42323;52.170;7.538;2023-05-08T00:08:36;101685.38;;;13.59;nan
56420;BME280;42323;52.170;7.538;2023-05-08T00:11:03;101684.03;;;13.63;nan
56420;BME280;42323;52.170;7.538;2023-05-08T00:13:29;101684.88;;;13.63;nan
56420;BME280;42323;52.170;7.538;2023-05-08T00:15:56;101690.31;;;13.62;nan
56420;BME280;42323;52.170;7.538;2023-05-08T00:18:22;101682.75;;;13.59;nan
56420;BME280;42323;52.170;7.538;2023-05-08T00:20:49;101678.81;;;13.54;nan
56420;BME280;42323;52.170;7.538;2023-05-08T00:23:15;101679.97;;;13.52;nan
56420;BME280;42323;52.170;7.538;2023-05-08T00:25:42;101670.63;;;13.41;nan
56420;BME280;42323;52.170;7.538;2023-05-08T00:28:08;101683.78;;;13.41;nan
56420;BME280;42323;52.170;7.538;2023-05-08T00:30:35;101678.69;;;13.40;nan
56420;BME280;42323;52.170;7.538;2023-05-08T00:33:02;101688.72;;;13.36;nan
56420;BME280;42323;52.170;7.538;2023-05-08T00:35:28;101682.97;;;13.33;nan
56420;BME280;42323;52.170;7.538;2023-05-08T00:37:55;101684.28;;;13.37;nan
56420;BME280;42323;52.170;7.538;2023-05-08T00:40:21;101687.09;;;13.35;nan
56420;BME280;42323;52.170;7.538;2023-05-08T00:42:48;101681.66;;;13.28;nan
56420;BME280;42323;52.170;7.538;2023-05-08T00:45:15;101686.78;;;13.30;nan
56420;BME280;42323;52.170;7.538;2023-05-08T00:47:41;101687.59;;;13.30;nan
56420;BME280;42323;52.170;7.538;2023-05-08T00:50:09;101687.59;;;13.30;nan
56420;BME280;42323;52.170;7.538;2023-05-08T00:52:36;101692.69;;;13.32;nan
56420;BME280;42323;52.170;7.538;2023-05-08T00:55:04;101692.50;;;13.34;nan
56420;BME280;42323;52.170;7.538;2023-05-08T00:57:31;101689.41;;;13.30;nan
56420;BME280;42323;52.170;7.538;2023-05-08T01:00:00;101683.97;;;13.23;nan
56420;BME280;42323;52.170;7.538;2023-05-08T01:02:29;101681.00;;;13.18;nan
56420;BME280;42323;52.170;7.538;2023-05-08T01:04:57;101678.53;;;13.17;nan
56420;BME280;42323;52.170;7.538;2023-05-08T01:07:23;101685.44;;;13.18;nan
56420;BME280;42323;52.170;7.538;2023-05-08T01:09:50;101697.63;;;13.19;nan
56420;BME280;42323;52.170;7.538;2023-05-08T01:12:46;101689.22;;;13.15;nan
56420;BME280;42323;52.170;7.538;2023-05-08T01:15:22;101677.06;;;13.14;nan
56420;BME280;42323;52.170;7.538;2023-05-08T01:18:08;101672.78;;;13.13;nan
56420;BME280;42323;52.170;7.538;2023-05-08T01:20:57;101681.84;;;13.11;nan
56420;BME280;42323;52.170;7.538;2023-05-08T01:26:29;101686.28;;;13.02;nan
56420;BME280;42323;52.170;7.538;2023-05-08T01:29:19;101684.97;;;12.98;nan
56420;BME280;42323;52.170;7.538;2023-05-08T01:34:45;101674.44;;;12.90;nan
56420;BME280;42323;52.170;7.538;2023-05-08T01:37:21;101672.00;;;12.88;nan
56420;BME280;42323;52.170;7.538;2023-05-08T01:40:16;101684.31;;;12.88;nan
56420;BME280;42323;52.170;7.538;2023-05-08T01:42:48;101678.56;;;12.84;nan
56420;BME280;42323;52.170;7.538;2023-05-08T01:45:20;101666.72;;;12.72;nan
56420;BME280;42323;52.170;7.538;2023-05-08T01:47:53;101665.22;;;12.69;nan
56420;BME280;42323;52.170;7.538;2023-05-08T01:50:30;101680.06;;;12.78;nan
56420;BME280;42323;52.170;7.538;2023-05-08T01:53:18;101684.63;;;12.76;nan
56420;BME280;42323;52.170;7.538;2023-05-08T01:55:47;101694.53;;;12.74;nan
56420;BME280;42323;52.170;7.538;2023-05-08T01:58:15;101693.19;;;12.70;nan
56420;BME280;42323;52.170;7.538;2023-05-08T02:00:44;101706.16;;;12.64;nan
56420;BME280;42323;52.170;7.538;2023-05-08T02:03:13;101693.34;;;12.61;nan
56420;BME280;42323;52.170;7.538;2023-05-08T02:05:41;101709.59;;;12.64;nan
56420;BME280;42323;52.170;7.538;2023-05-08T02:08:10;101706.03;;;12.65;nan
56420;BME280;42323;52.170;7.538;2023-05-08T02:10:38;101703.38;;;12.65;nan
56420;BME280;42323;52.170;7.538;2023-05-08T02:13:07;101703.53;;;12.64;nan
56420;BME280;42323;52.170;7.538;2023-05-08T02:15:36;101701.22;;;12.61;nan
56420;BME280;42323;52.170;7.538;2023-05-08T02:18:06;101701.06;;;12.54;nan
56420;BME280;42323;52.170;7.538;2023-05-08T02:20:34;101695.63;;;12.47;nan
56420;BME280;42323;52.170;7.538;2023-05-08T02:23:02;101701.22;;;12.44;nan
56420;BME280;42323;52.170;7.538;2023-05-08T02:25:30;101708.94;;;12.46;nan
56420;BME280;42323;52.170;7.538;2023-05-08T02:27:57;101706.31;;;12.46;nan
56420;BME280;42323;52.170;7.538;2023-05-08T02:30:25;101693.34;;;12.44;nan
56420;BME280;42323;52.170;7.538;2023-05-08T02:32:53;101698.25;;;12.47;nan
56420;BME280;42323;52.170;7.538;2023-05-08T02:35:23;101693.34;;;12.44;nan
56420;BME280;42323;52.170;7.538;2023-05-08T02:37:52;101696.91;;;12.43;nan
56420;BME280;42323;52.170;7.538;2023-05-08T02:40:22;101708.28;;;12.44;nan
56420;BME280;42323;52.170;7.538;2023-05-08T02:42:49;101688.19;;;12.35;nan
56420;BME280;42323;52.170;7.538;2023-05-08T02:45:16;101695.94;;;12.36;nan
56420;BME280;42323;52.170;7.538;2023-05-08T02:48:07;101704.47;;;12.38;nan
56420;BME280;42323;52.170;7.538;2023-05-08T02:57:14;101691.50;;;12.28;nan
56420;BME280;42323;52.170;7.538;2023-05-08T02:59:46;101685.59;;;12.26;nan
56420;BME280;42323;52.170;7.538;2023-05-08T03:02:17;101679.00;;;12.22;nan
56420;BME280;42323;52.170;7.538;2023-05-08T03:04:55;101685.91;;;12.23;nan
56420;BME280;42323;52.170;7.538;2023-05-08T03:07:26;101677.16;;;12.15;nan
56420;BME280;42323;52.170;7.538;2023-05-08T03:09:57;101689.66;;;12.21;nan
56420;BME280;42323;52.170;7.538;2023-05-08T03:12:27;101670.41;;;12.12;nan
56420;BME280;42323;52.170;7.538;2023-05-08T03:14:59;101674.38;;;12.16;nan
56420;BME280;42323;52.170;7.538;2023-05-08T03:17:30;101684.75;;;12.18;nan
56420;BME280;42323;52.170;7.538;2023-05-08T03:20:01;101675.84;;;12.11;nan
56420;BME280;42323;52.170;7.538;2023-05-08T03:22:29;101685.19;;;12.13;nan
56420;BME280;42323;52.170;7.538;2023-05-08T03:25:00;101668.13;;;12.09;nan
56420;BME280;42323;52.170;7.538;2023-05-08T03:27:28;101671.06;;;12.06;nan
56420;BME280;42323;52.170;7.538;2023-05-08T03:29:56;101679.13;;;12.13;nan
56420;BME280;42323;52.170;7.538;2023-05-08T03:32:26;101679.59;;;12.08;nan
56420;BME280;42323;52.170;7.538;2023-05-08T03:34:54;101675.50;;;12.05;nan
56420;BME280;42323;52.170;7.538;2023-05-08T03:37:21;101662.03;;;12.00;nan
56420;BME280;42323;52.170;7.538;2023-05-08T03:39:47;101667.28;;;12.00;nan
56420;BME280;42323;52.170;7.538;2023-05-08T03:42:14;101681.56;;;12.06;nan
56420;BME280;42323;52.170;7.538;2023-05-08T03:44:49;101677.63;;;12.02;nan
56420;BME280;42323;52.170;7.538;2023-05-08T03:47:17;101688.63;;;12.05;nan
56420;BME280;42323;52.170;7.538;2023-05-08T03:49:45;101693.91;;;12.05;nan
56420;BME280;42323;52.170;7.538;2023-05-08T03:52:13;101689.78;;;12.03;nan
56420;BME280;42323;52.170;7.538;2023-05-08T03:54:40;101691.41;;;12.04;nan
56420;BME280;42323;52.170;7.538;2023-05-08T03:57:07;101688.44;;;11.99;nan
56420;BME280;42323;52.170;7.538;2023-05-08T03:59:51;101693.06;;;12.05;nan
56420;BME280;42323;52.170;7.538;2023-05-08T04:05:01;101692.22;;;12.04;nan
56420;BME280;42323;52.170;7.538;2023-05-08T04:07:46;101681.72;;;12.04;nan
56420;BME280;42323;52.170;7.538;2023-05-08T04:10:23;101689.63;;;12.13;nan
56420;BME280;42323;52.170;7.538;2023-05-08T04:13:02;101687.38;;;12.18;nan
56420;BME280;42323;52.170;7.538;2023-05-08T04:15:34;101691.78;;;12.17;nan
56420;BME280;42323;52.170;7.538;2023-05-08T04:18:05;101689.66;;;12.21;nan
56420;BME280;42323;52.170;7.538;2023-05-08T04:20:33;101690.97;;;12.25;nan
56420;BME280;42323;52.170;7.538;2023-05-08T04:23:02;101699.19;;;12.30;nan
56420;BME280;42323;52.170;7.538;2023-05-08T04:25:32;101689.53;;;12.30;nan
56420;BME280;42323;52.170;7.538;2023-05-08T04:28:01;101686.91;;;12.30;nan
56420;BME280;42323;52.170;7.538;2023-05-08T04:30:28;101675.72;;;12.28;nan
56420;BME280;42323;52.170;7.538;2023-05-08T04:32:55;101697.91;;;12.42;nan
56420;BME280;42323;52.170;7.538;2023-05-08T04:35:23;101702.53;;;12.48;nan
56420;BME280;42323;52.170;7.538;2023-05-08T04:37:50;101696.28;;;12.49;nan
56420;BME280;42323;52.170;7.538;2023-05-08T04:40:16;101700.25;;;12.62;nan
56420;BME280;42323;52.170;7.538;2023-05-08T04:42:43;101685.63;;;12.67;nan
56420;BME280;42323;52.170;7.538;2023-05-08T04:45:12;101695.03;;;12.78;nan
56420;BME280;42323;52.170;7.538;2023-05-08T04:47:39;101686.47;;;12.84;nan
56420;BME280;42323;52.170;7.538;2023-05-08T04:50:06;101686.78;;;12.89;nan
56420;BME280;42323;52.170;7.538;2023-05-08T04:52:33;101688.09;;;12.93;nan
56420;BME280;42323;52.170;7.538;2023-05-08T04:54:59;101696.97;;;12.92;nan
56420;BME280;42323;52.170;7.538;2023-05-08T04:57:26;101697.31;;;12.89;nan
56420;BME280;42323;52.170;7.538;2023-05-08T04:59:52;101700.59;;;12.91;nan
56420;BME280;42323;52.170;7.538;2023-05-08T05:02:19;101698.78;;;12.84;nan
56420;BME280;42323;52.170;7.538;2023-05-08T05:04:46;101710.13;;;12.84;nan
56420;BME280;42323;52.170;7.538;2023-05-08T05:07:12;101723.28;;;12.84;nan
56420;BME280;42323;52.170;7.538;2023-05-08T05:09:39;101717.69;;;12.79;nan
56420;BME280;42323;52.170;7.538;2023-05-08T05:12:05;101717.50;;;12.72;nan
56420;BME280;42323;52.170;7.538;2023-05-08T05:14:32;101728.84;;;12.73;nan
56420;BME280;42323;52.170;7.538;2023-05-08T05:16:59;101738.56;;;12.72;nan
56420;BME280;42323;52.170;7.538;2023-05-08T05:19:26;101736.09;;;12.71;nan
56420;BME280;42323;52.170;7.538;2023-05-08T05:21:52;101735.59;;;12.67;nan
56420;BME280;42323;52.170;7.538;2023-05-08T05:24:19;101732.44;;;12.64;nan
56420;BME280;42323;52.170;7.538;2023-05-08T05:26:45;101738.88;;;12.69;nan
56420;BME280;42323;52.170;7.538;2023-05-08T05:29:12;101730.97;;;12.69;nan
56420;BME280;42323;52.170;7.538;2023-05-08T05:31:38;101737.56;;;12.81;nan
56420;BME280;42323;52.170;7.538;2023-05-08T05:34:05;101725.91;;;12.84;nan
56420;BME280;42323;52.170;7.538;2023-05-08T05:36:32;101728.84;;;12.81;nan
56420;BME280;42323;52.170;7.538;2023-05-08T05:38:58;101728.22;;;12.87;nan
56420;BME280;42323;52.170;7.538;2023-05-08T05:41:25;101720.34;;;12.87;nan
56420;BME280;42323;52.170;7.538;2023-05-08T05:43:52;101724.75;;;12.95;nan
56420;BME280;42323;52.170;7.538;2023-05-08T05:46:18;101727.88;;;12.98;nan
56420;BME280;42323;52.170;7.538;2023-05-08T05:48:45;101715.72;;;12.97;nan
56420;BME280;42323;52.170;7.538;2023-05-08T05:51:11;101732.31;;;13.06;nan
56420;BME280;42323;52.170;7.538;2023-05-08T05:53:38;101731.66;;;13.12;nan
56420;BME280;42323;52.170;7.538;2023-05-08T05:56:05;101737.59;;;13.14;nan
56420;BME280;42323;52.170;7.538;2023-05-08T05:58:31;101728.88;;;13.14;nan
56420;BME280;42323;52.170;7.538;2023-05-08T06:00:58;101725.88;;;13.17;nan
56420;BME280;42323;52.170;7.538;2023-05-08T06:03:26;101741.69;;;13.17;nan
56420;BME280;42323;52.170;7.538;2023-05-08T06:05:53;101748.97;;;13.23;nan
56420;BME280;42323;52.170;7.538;2023-05-08T06:08:21;101744.69;;;13.30;nan
56420;BME280;42323;52.170;7.538;2023-05-08T06:10:48;101720.84;;;13.23;nan
56420;BME280;42323;52.170;7.538;2023-05-08T06:13:15;101737.75;;;13.37;nan
56420;BME280;42323;52.170;7.538;2023-05-08T06:15:41;101736.44;;;13.41;nan
56420;BME280;42323;52.170;7.538;2023-05-08T06:18:08;101733.97;;;13.40;nan
56420;BME280;42323;52.170;7.538;2023-05-08T06:20:36;101737.56;;;13.47;nan
56420;BME280;42323;52.170;7.538;2023-05-08T06:23:04;101736.09;;;13.44;nan
56420;BME280;42323;52.170;7.538;2023-05-08T06:25:31;101723.94;;;13.43;nan
56420;BME280;42323;52.170;7.538;2023-05-08T06:27:57;101731.84;;;13.43;nan
56420;BME280;42323;52.170;7.538;2023-05-08T06:30:24;101731.34;;;13.40;nan
56420;BME280;42323;52.170;7.538;2023-05-08T06:32:50;101716.56;;;13.30;nan
56420;BME280;42323;52.170;7.538;2023-05-08T06:35:17;101727.91;;;13.31;nan
56420;BME280;42323;52.170;7.538;2023-05-08T06:37:45;101723.75;;;13.20;nan
56420;BME280;42323;52.170;7.538;2023-05-08T06:40:12;101725.75;;;13.10;nan
56420;BME280;42323;52.170;7.538;2023-05-08T06:42:39;101732.31;;;13.06;nan
56420;BME280;42323;52.170;7.538;2023-05-08T06:45:09;101732.16;;;13.07;nan
56420;BME280;42323;52.170;7.538;2023-05-08T06:47:36;101730.50;;;13.06;nan
56420;BME280;42323;52.170;7.538;2023-05-08T06:50:04;101726.38;;;13.20;nan
56420;BME280;42323;52.170;7.538;2023-05-08T06:52:31;101724.44;;;13.39;nan
56420;BME280;42323;52.170;7.538;2023-05-08T06:54:59;101704.03;;;13.41;nan
56420;BME280;42323;52.170;7.538;2023-05-08T06:57:26;101722.88;;;13.69;nan
56420;BME280;42323;52.170;7.538;2023-05-08T06:59:55;101718.84;;;13.89;nan
56420;BME280;42323;52.170;7.538;2023-05-08T07:02:21;101712.88;;;14.03;nan
56420;BME280;42323;52.170;7.538;2023-05-08T07:04:48;101712.09;;;14.26;nan
56420;BME280;42323;52.170;7.538;2023-05-08T07:07:14;101725.81;;;14.52;nan
56420;BME280;42323;52.170;7.538;2023-05-08T07:09:41;101727.53;;;14.68;nan
56420;BME280;42323;52.170;7.538;2023-05-08T07:12:08;101727.56;;;14.83;nan
56420;BME280;42323;52.170;7.538;2023-05-08T07:14:34;101704.56;;;14.92;nan
56420;BME280;42323;52.170;7.538;2023-05-08T07:17:03;101725.41;;;15.24;nan
56420;BME280;42323;52.170;7.538;2023-05-08T07:19:34;101723.97;;;15.51;nan
56420;BME280;42323;52.170;7.538;2023-05-08T07:22:01;101724.28;;;15.71;nan
56420;BME280;42323;52.170;7.538;2023-05-08T07:24:28;101724.91;;;15.88;nan
56420;BME280;42323;52.170;7.538;2023-05-08T07:26:54;101715.59;;;15.92;nan
56420;BME280;42323;52.170;7.538;2023-05-08T07:29:21;101730.91;;;16.12;nan
56420;BME280;42323;52.170;7.538;2023-05-08T07:31:47;101710.06;;;16.02;nan
56420;BME280;42323;52.170;7.538;2023-05-08T07:34:14;101724.31;;;16.22;nan
56420;BME280;42323;52.170;7.538;2023-05-08T07:36:41;101727.66;;;16.31;nan
56420;BME280;42323;52.170;7.538;2023-05-08T07:39:07;101724.66;;;16.34;nan
56420;BME280;42323;52.170;7.538;2023-05-08T07:41:34;101733.28;;;16.43;nan
56420;BME280;42323;52.170;7.538;2023-05-08T07:44:02;101739.28;;;16.51;nan
56420;BME280;42323;52.170;7.538;2023-05-08T07:46:29;101741.16;;;16.58;nan
56420;BME280;42323;52.170;7.538;2023-05-08T07:48:55;101741.28;;;16.71;nan
56420;BME280;42323;52.170;7.538;2023-05-08T07:51:22;101732.00;;;16.75;nan
56420;BME280;42323;52.170;7.538;2023-05-08T07:53:48;101734.16;;;16.86;nan
56420;BME280;42323;52.170;7.538;2023-05-08T07:56:16;101745.50;;;17.01;nan
56420;BME280;42323;52.170;7.538;2023-05-08T07:58:43;101745.34;;;17.10;nan
56420;BME280;42323;52.170;7.538;2023-05-08T08:01:11;101741.88;;;17.09;nan
56420;BME280;42323;52.170;7.538;2023-05-08T08:03:37;101734.56;;;17.11;nan
56420;BME280;42323;52.170;7.538;2023-05-08T08:06:04;101744.03;;;17.27;nan
56420;BME280;42323;52.170;7.538;2023-05-08T08:08:33;101732.47;;;17.28;nan
56420;BME280;42323;52.170;7.538;2023-05-08T08:11:01;101746.56;;;17.35;nan
56420;BME280;42323;52.170;7.538;2023-05-08T08:13:29;101731.91;;;17.39;nan
56420;BME280;42323;52.170;7.538;2023-05-08T08:15:55;101732.41;;;17.49;nan
56420;BME280;42323;52.170;7.538;2023-05-08T08:18:22;101747.34;;;17.64;nan
56420;BME280;42323;52.170;7.538;2023-05-08T08:20:49;101736.31;;;17.60;nan
56420;BME280;42323;52.170;7.538;2023-05-08T08:23:15;101739.84;;;17.67;nan
56420;BME280;42323;52.170;7.538;2023-05-08T08:25:42;101746.56;;;17.70;nan
56420;BME280;42323;52.170;7.538;2023-05-08T08:28:09;101735.31;;;17.61;nan
56420;BME280;42323;52.170;7.538;2023-05-08T08:30:36;101746.75;;;17.62;nan
56420;BME280;42323;52.170;7.538;2023-05-08T08:33:03;101750.31;;;17.75;nan
56420;BME280;42323;52.170;7.538;2023-05-08T08:35:32;101745.03;;;17.82;nan
56420;BME280;42323;52.170;7.538;2023-05-08T08:37:58;101741.19;;;17.85;nan
56420;BME280;42323;52.170;7.538;2023-05-08T08:40:25;101754.47;;;17.91;nan
56420;BME280;42323;52.170;7.538;2023-05-08T08:42:51;101738.16;;;17.88;nan
56420;BME280;42323;52.170;7.538;2023-05-08T08:45:18;101737.72;;;17.91;nan
56420;BME280;42323;52.170;7.538;2023-05-08T08:47:46;101743.09;;;18.04;nan
56420;BME280;42323;52.170;7.538;2023-05-08T08:50:13;101748.00;;;18.07;nan
56420;BME280;42323;52.170;7.538;2023-05-08T08:52:50;101751.31;;;18.16;nan
56420;BME280;42323;52.170;7.538;2023-05-08T08:55:21;101744.81;;;18.18;nan
56420;BME280;42323;52.170;7.538;2023-05-08T08:58:16;101753.38;;;18.20;nan
56420;BME280;42323;52.170;7.538;2023-05-08T09:00:43;101743.16;;;18.17;nan
56420;BME280;42323;52.170;7.538;2023-05-08T09:03:10;101737.88;;;18.30;nan
56420;BME280;42323;52.170;7.538;2023-05-08T09:05:38;101746.09;;;18.36;nan
56420;BME280;42323;52.170;7.538;2023-05-08T09:08:05;101740.34;;;18.39;nan
56420;BME280;42323;52.170;7.538;2023-05-08T09:10:33;101731.53;;;18.25;nan
56420;BME280;42323;52.170;7.538;2023-05-08T09:13:00;101734.44;;;18.37;nan
56420;BME280;42323;52.170;7.538;2023-05-08T09:15:26;101733.03;;;18.41;nan
56420;BME280;42323;52.170;7.538;2023-05-08T09:17:53;101738.34;;;18.47;nan
56420;BME280;42323;52.170;7.538;2023-05-08T09:20:20;101735.50;;;18.55;nan
56420;BME280;42323;52.170;7.538;2023-05-08T09:22:47;101729.25;;;18.70;nan
56420;BME280;42323;52.170;7.538;2023-05-08T09:25:14;101734.13;;;18.86;nan
56420;BME280;42323;52.170;7.538;2023-05-08T09:27:41;101713.50;;;19.08;nan
56420;BME280;42323;52.170;7.538;2023-05-08T09:30:08;101728.81;;;19.19;nan
56420;BME280;42323;52.170;7.538;2023-05-08T09:32:37;101723.72;;;19.31;nan
56420;BME280;42323;52.170;7.538;2023-05-08T09:35:06;101727.34;;;19.57;nan
56420;BME280;42323;52.170;7.538;2023-05-08T09:37:37;101718.03;;;19.92;nan
56420;BME280;42323;52.170;7.538;2023-05-08T09:40:14;101727.03;;;20.36;nan
56420;BME280;42323;52.170;7.538;2023-05-08T09:42:41;101735.13;;;20.54;nan
56420;BME280;42323;52.170;7.538;2023-05-08T09:45:08;101724.69;;;20.60;nan
56420;BME280;42323;52.170;7.538;2023-05-08T09:47:35;101722.81;;;20.60;nan
56420;BME280;42323;52.170;7.538;2023-05-08T09:50:09;101727.50;;;20.65;nan
56420;BME280;42323;52.170;7.538;2023-05-08T09:52:37;101723.53;;;20.74;nan
56420;BME280;42323;52.170;7.538;2023-05-08T09:55:09;101731.53;;;20.74;nan
56420;BME280;42323;52.170;7.538;2023-05-08T09:57:37;101728.00;;;20.80;nan
56420;BME280;42323;52.170;7.538;2023-05-08T10:00:11;101728.72;;;20.69;nan
56420;BME280;42323;52.170;7.538;2023-05-08T10:02:41;101727.06;;;20.68;nan
56420;BME280;42323;52.170;7.538;2023-05-08T10:05:28;101725.56;;;20.78;nan
56420;BME280;42323;52.170;7.538;2023-05-08T10:07:58;101735.78;;;21.32;nan
56420;BME280;42323;52.170;7.538;2023-05-08T10:10:26;101716.16;;;21.63;nan
56420;BME280;42323;52.170;7.538;2023-05-08T10:12:57;101731.81;;;21.77;nan
56420;BME280;42323;52.170;7.538;2023-05-08T10:15:28;101726.44;;;21.96;nan
56420;BME280;42323;52.170;7.538;2023-05-08T10:18:03;101732.81;;;22.13;nan
56420;BME280;42323;52.170;7.538;2023-05-08T10:20:31;101730.22;;;22.07;nan
56420;BME280;42323;52.170;7.538;2023-05-08T10:22:58;101731.41;;;21.92;nan
56420;BME280;42323;52.170;7.538;2023-05-08T10:25:31;101727.88;;;21.98;nan
56420;BME280;42323;52.170;7.538;2023-05-08T10:28:25;101721.03;;;22.02;nan
56420;BME280;42323;52.170;7.538;2023-05-08T10:30:54;101720.97;;;22.39;nan
56420;BME280;42323;52.170;7.538;2023-05-08T10:33:29;101711.63;;;22.60;nan
56420;BME280;42323;52.170;7.538;2023-05-08T10:35:59;101716.75;;;22.73;nan
56420;BME280;42323;52.170;7.538;2023-05-08T10:38:26;101712.44;;;22.72;nan
56420;BME280;42323;52.170;7.538;2023-05-08T10:40:53;101719.78;;;22.77;nan
56420;BME280;42323;52.170;7.538;2023-05-08T10:43:24;101724.59;;;22.98;nan
56420;BME280;42323;52.170;7.538;2023-05-08T10:45:52;101710.06;;;23.06;nan
56420;BME280;42323;52.170;7.538;2023-05-08T10:48:28;101714.81;;;23.04;nan
56420;BME280;42323;52.170;7.538;2023-05-08T10:51:26;101712.38;;;23.49;nan
56420;BME280;42323;52.170;7.538;2023-05-08T10:54:33;101703.81;;;23.88;nan
56420;BME280;42323;52.170;7.538;2023-05-08T10:57:11;101694.81;;;24.22;nan
56420;BME280;42323;52.170;7.538;2023-05-08T10:59:37;101698.53;;;25.17;nan
56420;BME280;42323;52.170;7.538;2023-05-08T11:02:05;101693.31;;;26.47;nan
56420;BME280;42323;52.170;7.538;2023-05-08T11:04:33;101693.06;;;26.86;nan
56420;BME280;42323;52.170;7.538;2023-05-08T11:06:59;101681.91;;;27.10;nan
56420;BME280;42323;52.170;7.538;2023-05-08T11:09:45;101683.28;;;26.43;nan
56420;BME280;42323;52.170;7.538;2023-05-08T11:14:41;101685.56;;;25.53;nan
56420;BME280;42323;52.170;7.538;2023-05-08T11:17:09;101678.34;;;25.15;nan
56420;BME280;42323;52.170;7.538;2023-05-08T11:19:36;101679.50;;;24.85;nan
56420;BME280;42323;52.170;7.538;2023-05-08T11:24:40;101679.09;;;23.97;nan
56420;BME280;42323;52.170;7.538;2023-05-08T11:27:13;101681.84;;;23.74;nan
56420;BME280;42323;52.170;7.538;2023-05-08T11:29:40;101683.69;;;23.62;nan
56420;BME280;42323;52.170;7.538;2023-05-08T11:32:07;101682.94;;;23.49;nan
56420;BME280;42323;52.170;7.538;2023-05-08T11:39:36;101686.56;;;22.96;nan
56420;BME280;42323;52.170;7.538;2023-05-08T11:42:32;101687.59;;;22.84;nan
56420;BME280;42323;52.170;7.538;2023-05-08T11:45:07;101680.38;;;22.61;nan
56420;BME280;42323;52.170;7.538;2023-05-08T11:47:37;101683.16;;;22.54;nan
56420;BME280;42323;52.170;7.538;2023-05-08T11:50:06;101684.06;;;22.48;nan
56420;BME280;42323;52.170;7.538;2023-05-08T11:52:37;101687.44;;;22.55;nan
56420;BME280;42323;52.170;7.538;2023-05-08T11:55:09;101675.03;;;22.61;nan
56420;BME280;42323;52.170;7.538;2023-05-08T11:57:35;101689.00;;;22.86;nan
56420;BME280;42323;52.170;7.538;2023-05-08T12:00:07;101676.34;;;23.05;nan
56420;BME280;42323;52.170;7.538;2023-05-08T12:02:38;101680.38;;;23.43;nan
56420;BME280;42323;52.170;7.538;2023-05-08T12:05:06;101674.47;;;23.81;nan
56420;BME280;42323;52.170;7.538;2023-05-08T12:07:46;101677.22;;;23.98;nan
56420;BME280;42323;52.170;7.538;2023-05-08T12:10:15;101660.22;;;24.21;nan
56420;BME280;42323;52.170;7.538;2023-05-08T12:12:43;101669.25;;;24.65;nan
56420;BME280;42323;52.170;7.538;2023-05-08T12:15:12;101681.97;;;25.25;nan
56420;BME280;42323;52.170;7.538;2023-05-08T12:17:39;101683.72;;;25.15;nan
56420;BME280;42323;52.170;7.538;2023-05-08T12:20:14;101663.75;;;25.27;nan
56420;BME280;42323;52.170;7.538;2023-05-08T12:22:49;101648.03;;;25.14;nan
56420;BME280;42323;52.170;7.538;2023-05-08T12:25:16;101660.78;;;25.07;nan
56420;BME280;42323;52.170;7.538;2023-05-08T12:27:44;101661.59;;;24.91;nan
56420;BME280;42323;52.170;7.538;2023-05-08T12:30:13;101669.31;;;25.04;nan
56420;BME280;42323;52.170;7.538;2023-05-08T12:32:41;101658.84;;;26.44;nan
56420;BME280;42323;52.170;7.538;2023-05-08T12:35:11;101651.56;;;28.54;nan
56420;BME280;42323;52.170;7.538;2023-05-08T12:37:39;101645.34;;;28.17;nan
56420;BME280;42323;52.170;7.538;2023-05-08T12:40:06;101647.16;;;27.71;nan
56420;BME280;42323;52.170;7.538;2023-05-08T12:42:49;101651.84;;;27.28;nan
56420;BME280;42323;52.170;7.538;2023-05-08T12:45:21;101662.00;;;27.11;nan
56420;BME280;42323;52.170;7.538;2023-05-08T12:47:48;101658.44;;;27.00;nan
56420;BME280;42323;52.170;7.538;2023-05-08T12:50:16;101661.09;;;26.95;nan
56420;BME280;42323;52.170;7.538;2023-05-08T12:52:47;101665.03;;;26.82;nan
56420;BME280;42323;52.170;7.538;2023-05-08T12:55:21;101652.19;;;26.52;nan
56420;BME280;42323;52.170;7.538;2023-05-08T12:58:03;101662.59;;;26.43;nan
56420;BME280;42323;52.170;7.538;2023-05-08T13:03:01;101653.72;;;26.80;nan
56420;BME280;42323;52.170;7.538;2023-05-08T13:05:28;101649.28;;;27.06;nan
56420;BME280;42323;52.170;7.538;2023-05-08T13:07:59;101644.34;;;27.30;nan
56420;BME280;42323;52.170;7.538;2023-05-08T13:10:51;101650.84;;;27.44;nan
56420;BME280;42323;52.170;7.538;2023-05-08T13:13:21;101656.66;;;28.09;nan
56420;BME280;42323;52.170;7.538;2023-05-08T13:15:50;101642.03;;;28.92;nan
56420;BME280;42323;52.170;7.538;2023-05-08T13:18:18;101646.19;;;28.64;nan
56420;BME280;42323;52.170;7.538;2023-05-08T13:20:45;101649.59;;;29.10;nan
56420;BME280;42323;52.170;7.538;2023-05-08T13:23:12;101640.38;;;29.16;nan
56420;BME280;42323;52.170;7.538;2023-05-08T13:25:39;101635.03;;;29.06;nan
56420;BME280;42323;52.170;7.538;2023-05-08T13:28:07;101637.50;;;28.82;nan
56420;BME280;42323;52.170;7.538;2023-05-08T13:30:35;101640.53;;;28.50;nan
56420;BME280;42323;52.170;7.538;2023-05-08T13:33:02;101639.16;;;28.22;nan
56420;BME280;42323;52.170;7.538;2023-05-08T13:35:29;101629.44;;;28.26;nan
56420;BME280;42323;52.170;7.538;2023-05-08T13:37:57;101632.13;;;28.72;nan
56420;BME280;42323;52.170;7.538;2023-05-08T13:40:24;101627.22;;;28.99;nan
56420;BME280;42323;52.170;7.538;2023-05-08T13:42:51;101616.25;;;29.35;nan
56420;BME280;42323;52.170;7.538;2023-05-08T13:45:18;101608.34;;;30.86;nan
56420;BME280;42323;52.170;7.538;2023-05-08T13:47:46;101611.25;;;32.08;nan
56420;BME280;42323;52.170;7.538;2023-05-08T13:50:15;101605.44;;;32.88;nan